Time;durP1;ratioP1;P1;durP2;ratioP2;P2;SDS_P1;SDS_P2;PMS_P1;PMS_P2;Temp;Humidity;BMP_temperature;BMP_pressure;BME280_temperature;BME280_humidity;BME280_pressure;Samples;Min_cycle;Max_cycle;Signal;HPM_P1;HPM_P2
2021/01/05 00:02:12;;;;;;;;;;;;;;;20.30;30.75;100182.84;5059383;28;19939;-59
2021/01/05 00:04:39;;;;;;;;;;;;;;;20.29;30.90;100183.94;5079505;28;19924;-59
2021/01/05 00:07:06;;;;;;;;;;;;;;;20.32;30.84;100175.06;5077626;28;19955;-60
2021/01/05 00:09:32;;;;;;;;;;;;;;;20.35;30.67;100180.06;5058319;28;20027;-59
2021/01/05 00:12:03;;;;;;;;;;;;;;;20.35;30.62;100177.28;5059486;28;19925;-58
2021/01/05 00:14:32;;;;;;;;;;;;;;;20.34;30.60;100168.16;5073635;28;20314;-58
2021/01/05 00:16:59;;;;;;;;;;;;;;;20.38;30.59;100165.69;5057316;28;19924;-59
2021/01/05 00:19:25;;;;;;;;;;;;;;;20.39;30.62;100162.63;5054759;28;19925;-59
2021/01/05 00:21:52;;;;;;;;;;;;;;;20.40;30.68;100169.81;5057447;28;19928;-59
2021/01/05 00:24:19;;;;;;;;;;;;;;;20.40;30.63;100169.00;5048782;28;19925;-58
2021/01/05 00:26:45;;;;;;;;;;;;;;;20.38;30.79;100171.22;5052022;28;20041;-60
2021/01/05 00:29:12;;;;;;;;;;;;;;;20.37;30.57;100175.06;5044034;28;20055;-59
2021/01/05 00:31:38;;;;;;;;;;;;;;;20.38;30.68;100171.22;5049934;28;20029;-59
2021/01/05 00:34:05;;;;;;;;;;;;;;;20.38;30.71;100172.06;5049163;28;20020;-58
2021/01/05 00:36:31;;;;;;;;;;;;;;;20.36;30.89;100174.22;5034942;28;19932;-59
2021/01/05 00:38:57;;;;;;;;;;;;;;;20.36;30.64;100179.78;5058061;28;20376;-59
2021/01/05 00:41:24;;;;;;;;;;;;;;;20.39;30.68;100172.88;5056024;28;19939;-59
2021/01/05 00:43:50;;;;;;;;;;;;;;;20.39;30.87;100168.16;5053245;28;20306;-59
2021/01/05 00:46:19;;;;;;;;;;;;;;;20.42;30.73;100180.63;5038898;28;19932;-59
2021/01/05 00:48:46;;;;;;;;;;;;;;;20.41;30.73;100167.88;5052211;28;19955;-59
2021/01/05 00:51:13;;;;;;;;;;;;;;;20.42;30.76;100177.03;5052228;28;19979;-59
2021/01/05 00:53:40;;;;;;;;;;;;;;;20.44;30.86;100174.81;5049978;28;19928;-60
2021/01/05 00:56:08;;;;;;;;;;;;;;;20.47;30.71;100179.75;5050145;28;19925;-60
2021/01/05 00:58:34;;;;;;;;;;;;;;;20.46;30.55;100178.91;5075847;28;19929;-59
2021/01/05 01:01:01;;;;;;;;;;;;;;;20.47;30.72;100182.50;5068847;28;19971;-59
2021/01/05 01:03:27;;;;;;;;;;;;;;;20.46;30.50;100184.44;5058225;28;19924;-59
2021/01/05 01:05:54;;;;;;;;;;;;;;;20.43;30.62;100185.03;5053427;28;19924;-59
2021/01/05 01:08:23;;;;;;;;;;;;;;;20.43;30.71;100190.59;5076548;22;19933;-60
2021/01/05 01:10:53;;;;;;;;;;;;;;;20.42;30.67;100188.09;5050135;28;19974;-60
2021/01/05 01:13:23;;;;;;;;;;;;;;;20.41;30.84;100190.03;5059791;28;19932;-59
2021/01/05 01:15:50;;;;;;;;;;;;;;;20.39;30.89;100197.78;5048900;28;19929;-60
2021/01/05 01:18:16;;;;;;;;;;;;;;;20.38;30.90;100185.06;5067282;28;19931;-59
2021/01/05 01:20:43;;;;;;;;;;;;;;;20.35;30.63;100191.13;5050450;28;20011;-60
2021/01/05 01:23:16;;;;;;;;;;;;;;;20.34;30.69;100186.69;5050778;28;19925;-60
2021/01/05 01:25:45;;;;;;;;;;;;;;;20.33;31.01;100198.88;5049678;28;20465;-58
2021/01/05 01:28:12;;;;;;;;;;;;;;;20.45;31.16;100204.94;5051729;28;19925;-60
2021/01/05 01:30:46;;;;;;;;;;;;;;;20.57;30.88;100202.69;5042808;28;19948;-60
2021/01/05 01:33:14;;;;;;;;;;;;;;;20.83;30.53;100200.66;5034404;28;20027;-60
2021/01/05 01:35:41;;;;;;;;;;;;;;;20.97;29.96;100198.09;5046304;28;19939;-60
2021/01/05 01:38:10;;;;;;;;;;;;;;;20.97;29.38;100192.56;5046298;28;19978;-60
2021/01/05 01:40:45;;;;;;;;;;;;;;;20.84;29.74;100193.16;5054604;28;20027;-62
2021/01/05 01:43:22;;;;;;;;;;;;;;;20.76;29.78;100194.59;5050723;28;19925;-60
2021/01/05 01:45:51;;;;;;;;;;;;;;;20.69;29.74;100189.38;5051110;28;19925;-61
2021/01/05 01:48:22;;;;;;;;;;;;;;;20.67;30.03;100186.06;5050499;28;20302;-59
2021/01/05 01:50:54;;;;;;;;;;;;;;;20.61;30.20;100186.34;5051391;28;20449;-58
2021/01/05 01:53:29;;;;;;;;;;;;;;;20.56;30.08;100184.44;5033794;28;20448;-60
2021/01/05 01:56:05;;;;;;;;;;;;;;;20.54;30.15;100186.66;5039737;28;19924;-59
2021/01/05 01:58:41;;;;;;;;;;;;;;;20.50;30.01;100191.09;5050290;28;20027;-59
2021/01/05 02:01:09;;;;;;;;;;;;;;;20.49;29.98;100191.38;5034323;28;19925;-60
2021/01/05 02:03:50;;;;;;;;;;;;;;;20.49;29.90;100191.38;5050260;28;20378;-59
2021/01/05 02:06:22;;;;;;;;;;;;;;;20.47;30.27;100183.34;5024138;28;20410;-59
2021/01/05 02:09:10;;;;;;;;;;;;;;;20.43;29.98;100182.28;5062703;28;19925;-60
2021/01/05 02:11:47;;;;;;;;;;;;;;;20.40;30.13;100180.06;5050115;28;19925;-60
2021/01/05 02:14:14;;;;;;;;;;;;;;;20.35;30.22;100180.06;5050294;28;19928;-61
2021/01/05 02:17:10;;;;;;;;;;;;;;;20.31;30.04;100173.41;5051276;28;20345;-59
2021/01/05 02:19:37;;;;;;;;;;;;;;;20.28;30.10;100171.22;5031405;28;19929;-59
2021/01/05 02:22:25;;;;;;;;;;;;;;;20.29;30.09;100170.09;5066307;28;20400;-59
2021/01/05 02:25:05;;;;;;;;;;;;;;;20.30;30.27;100163.44;5047007;28;20011;-58
2021/01/05 02:27:35;;;;;;;;;;;;;;;20.28;30.12;100171.22;5033289;28;20391;-61
2021/01/05 02:30:02;;;;;;;;;;;;;;;20.31;30.18;100174.25;5033177;28;19931;-59
2021/01/05 02:32:38;;;;;;;;;;;;;;;20.33;30.09;100162.91;5033690;28;20445;-59
2021/01/05 02:35:17;;;;;;;;;;;;;;;20.37;30.27;100152.91;5066123;28;19925;-60
2021/01/05 02:38:18;;;;;;;;;;;;;;;20.41;29.88;100154.06;5038663;28;19928;-58
2021/01/05 02:41:22;;;;;;;;;;;;;;;20.41;29.95;100148.50;5041456;28;19925;-60
2021/01/05 02:44:12;;;;;;;;;;;;;;;20.42;29.99;100152.94;5050862;28;19931;-59
2021/01/05 02:47:00;;;;;;;;;;;;;;;20.42;29.81;100152.94;5050673;28;19925;-60
2021/01/05 02:49:45;;;;;;;;;;;;;;;20.39;30.10;100157.09;5049768;28;19932;-59
2021/01/05 02:52:33;;;;;;;;;;;;;;;20.42;29.85;100157.66;5050792;28;19925;-60
2021/01/05 02:55:36;;;;;;;;;;;;;;;20.38;29.87;100143.53;5037941;28;19993;-60
2021/01/05 02:58:38;;;;;;;;;;;;;;;20.34;30.09;100142.41;5049512;28;20232;-59
2021/01/05 03:01:40;;;;;;;;;;;;;;;20.33;29.84;100149.88;5033789;28;20209;-60
2021/01/05 03:04:25;;;;;;;;;;;;;;;20.28;29.92;100149.91;5049699;28;19932;-59
2021/01/05 03:07:14;;;;;;;;;;;;;;;20.26;29.93;100152.13;5054400;28;19925;-60
2021/01/05 03:09:59;;;;;;;;;;;;;;;20.20;29.83;100157.94;5053695;28;20405;-61
2021/01/05 03:12:54;;;;;;;;;;;;;;;20.14;30.03;100150.75;5027401;28;19925;-59
2021/01/05 03:15:42;;;;;;;;;;;;;;;20.14;29.97;100153.53;5053663;28;20345;-59
2021/01/05 03:18:34;;;;;;;;;;;;;;;20.19;30.02;100156.28;5053436;28;19932;-60
2021/01/05 03:21:27;;;;;;;;;;;;;;;20.21;29.89;100152.13;5030642;28;19994;-59
2021/01/05 03:24:12;;;;;;;;;;;;;;;20.24;29.71;100147.97;5049223;28;19952;-59
2021/01/05 03:26:56;;;;;;;;;;;;;;;20.27;29.84;100152.94;5037976;28;19925;-60
2021/01/05 03:29:41;;;;;;;;;;;;;;;20.28;29.64;100144.34;5058601;28;20421;-60
2021/01/05 03:32:26;;;;;;;;;;;;;;;20.31;29.90;100143.81;5054809;28;20014;-59
2021/01/05 03:35:11;;;;;;;;;;;;;;;20.30;29.90;100147.69;5053958;28;20451;-60
2021/01/05 03:37:56;;;;;;;;;;;;;;;20.31;29.71;100142.97;5027213;28;19924;-60
2021/01/05 03:40:42;;;;;;;;;;;;;;;20.33;29.63;100146.28;5027816;28;20038;-60
2021/01/05 03:43:27;;;;;;;;;;;;;;;20.30;29.72;100136.59;5053869;28;19925;-60
2021/01/05 03:46:12;;;;;;;;;;;;;;;20.33;29.60;100146.28;5052788;28;19954;-61
2021/01/05 03:48:57;;;;;;;;;;;;;;;20.32;29.74;100144.63;5052817;28;19929;-59
2021/01/05 03:51:42;;;;;;;;;;;;;;;20.29;29.88;100145.19;5053970;28;19948;-60
2021/01/05 03:54:28;;;;;;;;;;;;;;;20.26;29.76;100142.97;5046336;28;19925;-60
2021/01/05 03:57:12;;;;;;;;;;;;;;;20.24;29.75;100139.66;5053972;28;19972;-60
2021/01/05 04:00:09;;;;;;;;;;;;;;;20.21;29.59;100143.81;5044271;28;19948;-60
2021/01/05 04:02:37;;;;;;;;;;;;;;;20.18;29.52;100149.09;5048104;28;19924;-58
2021/01/05 04:05:04;;;;;;;;;;;;;;;20.17;29.66;100144.66;5053953;28;19931;-60
2021/01/05 04:07:30;;;;;;;;;;;;;;;20.15;29.79;100138.56;5053390;28;19924;-60
2021/01/05 04:09:56;;;;;;;;;;;;;;;20.15;29.87;100144.13;5052462;28;19971;-59
2021/01/05 04:12:23;;;;;;;;;;;;;;;20.16;29.84;100146.59;5053582;28;20021;-59
2021/01/05 04:14:49;;;;;;;;;;;;;;;20.17;29.98;100147.44;5053241;28;19925;-60
2021/01/05 04:17:15;;;;;;;;;;;;;;;20.19;29.75;100145.22;5052644;28;20298;-60
2021/01/05 04:19:41;;;;;;;;;;;;;;;20.19;29.69;100150.75;5053114;28;19947;-59
2021/01/05 04:22:07;;;;;;;;;;;;;;;20.18;29.83;100149.09;5052918;28;20440;-60
2021/01/05 04:24:34;;;;;;;;;;;;;;;20.17;29.84;100153.78;5049235;28;19982;-60
2021/01/05 04:27:00;;;;;;;;;;;;;;;20.19;29.79;100151.56;5053072;28;20424;-60
2021/01/05 04:29:26;;;;;;;;;;;;;;;20.18;29.66;100144.38;5045414;28;19929;-59
2021/01/05 04:31:52;;;;;;;;;;;;;;;20.20;29.62;100146.88;5039126;28;19925;-60
2021/01/05 04:34:18;;;;;;;;;;;;;;;20.20;29.78;100141.34;5049928;28;19936;-60
2021/01/05 04:36:45;;;;;;;;;;;;;;;20.19;29.67;100145.22;5033772;28;19932;-60
2021/01/05 04:39:11;;;;;;;;;;;;;;;20.21;29.80;100151.28;5040646;28;19975;-59
2021/01/05 04:42:00;;;;;;;;;;;;;;;20.22;29.58;100152.97;5038896;28;19929;-60
2021/01/05 04:44:27;;;;;;;;;;;;;;;20.21;29.52;100151.28;5034278;28;19925;-60
2021/01/05 04:46:55;;;;;;;;;;;;;;;20.23;29.74;100151.84;5047412;28;20012;-60
2021/01/05 04:49:41;;;;;;;;;;;;;;;20.23;29.56;100152.69;5049202;28;19960;-61
2021/01/05 04:52:08;;;;;;;;;;;;;;;20.21;29.48;100143.81;5051224;28;19933;-60
2021/01/05 04:54:53;;;;;;;;;;;;;;;20.22;29.66;100147.41;5049209;28;19972;-60
2021/01/05 04:57:19;;;;;;;;;;;;;;;20.20;29.35;100152.41;5052354;28;20323;-59
2021/01/05 04:59:48;;;;;;;;;;;;;;;20.20;29.39;100147.69;5052522;28;19956;-60
2021/01/05 05:02:24;;;;;;;;;;;;;;;20.22;29.58;100144.66;5051221;28;20047;-60
2021/01/05 05:04:55;;;;;;;;;;;;;;;20.20;29.47;100147.69;5050829;28;19955;-58
2021/01/05 05:07:31;;;;;;;;;;;;;;;20.21;29.53;100146.59;5051307;28;19962;-59
2021/01/05 05:10:08;;;;;;;;;;;;;;;20.22;29.67;100147.41;5052529;28;19928;-60
2021/01/05 05:12:40;;;;;;;;;;;;;;;20.22;29.61;100150.19;5019111;28;19924;-58
2021/01/05 05:15:12;;;;;;;;;;;;;;;20.21;29.39;100148.53;5034799;28;19960;-61
2021/01/05 05:17:49;;;;;;;;;;;;;;;20.20;29.40;100149.63;5051251;28;20016;-61
2021/01/05 05:20:39;;;;;;;;;;;;;;;20.20;29.48;100149.63;5051526;28;20422;-61
2021/01/05 05:23:25;;;;;;;;;;;;;;;20.20;29.63;100152.41;5050829;28;19925;-60
2021/01/05 05:26:01;;;;;;;;;;;;;;;20.20;29.42;100152.41;5022722;28;19929;-60
2021/01/05 05:28:29;;;;;;;;;;;;;;;20.18;29.54;100149.09;5029763;28;19932;-60
2021/01/05 05:30:55;;;;;;;;;;;;;;;20.19;29.60;100147.97;5037834;28;20179;-60
2021/01/05 05:33:24;;;;;;;;;;;;;;;20.18;29.51;100155.44;5050520;28;19932;-60
2021/01/05 05:35:53;;;;;;;;;;;;;;;20.18;29.42;100149.91;5037743;28;20402;-59
2021/01/05 05:38:29;;;;;;;;;;;;;;;20.17;29.50;100158.50;5040715;28;19929;-59
2021/01/05 05:41:04;;;;;;;;;;;;;;;20.15;29.37;100155.19;5039517;28;19936;-60
2021/01/05 05:43:37;;;;;;;;;;;;;;;20.14;29.65;100154.34;5048520;28;20020;-59
2021/01/05 05:46:07;;;;;;;;;;;;;;;20.13;29.47;100154.63;5051609;28;20019;-60
2021/01/05 05:48:37;;;;;;;;;;;;;;;20.11;29.43;100156.84;5034255;28;19928;-60
2021/01/05 05:51:05;;;;;;;;;;;;;;;20.09;29.45;100154.41;5050980;28;19928;-60
2021/01/05 05:53:36;;;;;;;;;;;;;;;20.10;29.59;100155.22;5049800;28;19929;-60
2021/01/05 05:56:13;;;;;;;;;;;;;;;20.10;29.69;100160.75;5065321;28;19964;-58
2021/01/05 05:58:41;;;;;;;;;;;;;;;20.08;29.42;100153.56;5051856;28;19925;-59
2021/01/05 06:01:16;;;;;;;;;;;;;;;20.10;29.69;100144.16;5050318;28;19924;-60
2021/01/05 06:03:42;;;;;;;;;;;;;;;20.11;29.56;100143.84;5051533;28;20441;-59
2021/01/05 06:06:08;;;;;;;;;;;;;;;20.08;29.60;100148.03;5051713;28;19924;-59
2021/01/05 06:08:34;;;;;;;;;;;;;;;20.11;29.35;100146.59;5051174;28;20427;-59
2021/01/05 06:11:02;;;;;;;;;;;;;;;20.11;29.57;100154.91;5051522;28;20027;-59
2021/01/05 06:13:28;;;;;;;;;;;;;;;20.11;29.49;100157.69;5050662;28;20142;-59
2021/01/05 06:15:54;;;;;;;;;;;;;;;20.14;29.51;100151.59;5051224;28;20294;-60
2021/01/05 06:18:21;;;;;;;;;;;;;;;20.15;29.49;100158.78;5051398;28;20015;-60
2021/01/05 06:20:47;;;;;;;;;;;;;;;20.15;29.58;100166.25;5051177;28;20409;-60
2021/01/05 06:23:14;;;;;;;;;;;;;;;20.16;29.35;100168.75;5044411;28;19925;-59
2021/01/05 06:25:40;;;;;;;;;;;;;;;20.17;29.32;100175.09;5039828;28;19934;-60
2021/01/05 06:28:06;;;;;;;;;;;;;;;20.16;29.69;100168.75;5051014;28;19925;-60
2021/01/05 06:30:33;;;;;;;;;;;;;;;20.16;29.48;100173.44;5050959;28;19939;-60
2021/01/05 06:32:59;;;;;;;;;;;;;;;20.15;29.41;100172.63;5051157;28;19925;-59
2021/01/05 06:35:25;;;;;;;;;;;;;;;20.12;29.41;100167.63;5049559;28;20028;-60
2021/01/05 06:37:52;;;;;;;;;;;;;;;20.17;29.54;100169.56;5039345;28;20426;-60
2021/01/05 06:40:19;;;;;;;;;;;;;;;20.16;29.46;100174.28;5050883;28;19931;-60
2021/01/05 06:42:46;;;;;;;;;;;;;;;20.12;29.55;100162.09;5050772;28;20303;-60
2021/01/05 06:45:16;;;;;;;;;;;;;;;20.15;29.47;100174.56;5037252;28;19925;-59
2021/01/05 06:47:43;;;;;;;;;;;;;;;20.12;29.41;100178.72;5032621;28;19928;-59
2021/01/05 06:50:09;;;;;;;;;;;;;;;20.16;29.29;100178.97;5050794;28;19931;-59
2021/01/05 06:52:35;;;;;;;;;;;;;;;20.15;29.41;100182.84;5051182;28;19929;-59
2021/01/05 06:55:02;;;;;;;;;;;;;;;20.16;29.29;100184.50;5046227;28;20375;-60
2021/01/05 06:57:28;;;;;;;;;;;;;;;20.17;29.21;100188.94;5050507;28;19937;-60
2021/01/05 06:59:54;;;;;;;;;;;;;;;20.15;29.37;100189.22;5042328;28;20318;-59
2021/01/05 07:02:21;;;;;;;;;;;;;;;20.15;29.41;100199.47;5044380;28;19925;-58
2021/01/05 07:04:47;;;;;;;;;;;;;;;20.15;29.26;100199.47;5050751;28;19971;-60
2021/01/05 07:07:13;;;;;;;;;;;;;;;20.17;29.26;100197.25;5051037;28;19929;-59
2021/01/05 07:09:41;;;;;;;;;;;;;;;20.14;29.25;100198.63;5094038;22;20321;-65
2021/01/05 07:12:07;;;;;;;;;;;;;;;20.12;29.21;100200.84;5089163;28;19928;-66
2021/01/05 07:14:33;;;;;;;;;;;;;;;20.10;29.44;100200.28;5090737;28;19928;-66
2021/01/05 07:16:59;;;;;;;;;;;;;;;20.10;29.36;100207.78;5080546;28;19925;-66
2021/01/05 07:19:25;;;;;;;;;;;;;;;20.08;29.43;100194.25;5069057;28;20346;-65
2021/01/05 07:21:51;;;;;;;;;;;;;;;20.08;29.25;100200.59;5069924;28;20016;-64
2021/01/05 07:24:18;;;;;;;;;;;;;;;20.08;29.37;100199.78;5070831;28;19924;-66
2021/01/05 07:26:48;;;;;;;;;;;;;;;20.07;29.45;100204.47;5070331;28;19989;-64
2021/01/05 07:29:16;;;;;;;;;;;;;;;20.07;29.36;100212.78;5070571;28;20354;-64
2021/01/05 07:31:43;;;;;;;;;;;;;;;20.07;29.49;100215.53;5070378;28;19935;-64
2021/01/05 07:34:10;;;;;;;;;;;;;;;20.07;29.43;100211.94;5070338;28;19968;-64
2021/01/05 07:36:38;;;;;;;;;;;;;;;20.06;29.47;100213.88;5069012;28;20015;-64
2021/01/05 07:39:11;;;;;;;;;;;;;;;20.06;29.49;100213.06;5052389;28;19928;-65
2021/01/05 07:41:37;;;;;;;;;;;;;;;20.07;29.25;100215.53;5036125;28;19974;-65
2021/01/05 07:44:04;;;;;;;;;;;;;;;20.10;29.45;100224.41;5069056;28;19928;-65
2021/01/05 07:46:30;;;;;;;;;;;;;;;20.14;29.05;100222.69;5069182;28;19925;-65
2021/01/05 07:48:56;;;;;;;;;;;;;;;20.15;29.40;100218.81;5068642;28;20114;-64
2021/01/05 07:51:22;;;;;;;;;;;;;;;20.14;29.09;100220.75;5071784;28;20413;-65
2021/01/05 07:53:49;;;;;;;;;;;;;;;20.14;29.36;100225.47;5052245;28;20302;-66
2021/01/05 07:56:15;;;;;;;;;;;;;;;20.14;29.41;100222.69;5073343;28;19931;-64
2021/01/05 07:58:41;;;;;;;;;;;;;;;20.16;29.39;100217.72;5072160;28;19925;-65
2021/01/05 08:01:07;;;;;;;;;;;;;;;20.18;29.11;100204.44;5072335;28;19952;-65
2021/01/05 08:03:33;;;;;;;;;;;;;;;20.17;29.08;100213.84;5072088;28;19934;-64
2021/01/05 08:06:02;;;;;;;;;;;;;;;20.17;29.22;100205.53;5072199;28;19924;-66
2021/01/05 08:08:29;;;;;;;;;;;;;;;20.17;29.20;100209.13;5072176;28;19963;-64
2021/01/05 08:10:55;;;;;;;;;;;;;;;20.16;29.06;100213.00;5073198;28;19924;-64
2021/01/05 08:13:21;;;;;;;;;;;;;;;20.15;29.08;100216.06;5072250;28;20041;-64
2021/01/05 08:15:47;;;;;;;;;;;;;;;20.12;29.22;100220.22;5068508;28;19925;-64
2021/01/05 08:18:13;;;;;;;;;;;;;;;20.16;29.34;100220.50;5071898;28;19929;-65
2021/01/05 08:20:40;;;;;;;;;;;;;;;20.13;29.35;100221.88;5055502;28;19934;-65
2021/01/05 08:23:07;;;;;;;;;;;;;;;20.12;29.23;100217.44;5072028;28;19925;-65
2021/01/05 08:25:33;;;;;;;;;;;;;;;20.11;29.18;100214.97;5071911;28;19968;-67
2021/01/05 08:27:59;;;;;;;;;;;;;;;20.12;29.29;100220.22;5055261;28;19924;-66
2021/01/05 08:30:26;;;;;;;;;;;;;;;20.15;29.08;100216.06;5071606;28;19938;-66
2021/01/05 08:32:53;;;;;;;;;;;;;;;20.17;29.14;100219.38;5072779;28;19944;-65
2021/01/05 08:35:20;;;;;;;;;;;;;;;20.19;29.12;100223.53;5065886;28;19925;-65
2021/01/05 08:37:46;;;;;;;;;;;;;;;20.19;29.05;100215.22;5072604;28;20019;-65
2021/01/05 08:40:14;;;;;;;;;;;;;;;20.19;29.11;100229.06;5071650;28;20016;-65
2021/01/05 08:42:40;;;;;;;;;;;;;;;20.22;29.00;100227.69;5071744;28;19931;-66
2021/01/05 08:45:07;;;;;;;;;;;;;;;20.21;29.03;100220.47;5071764;28;19960;-65
2021/01/05 08:47:33;;;;;;;;;;;;;;;20.22;29.12;100228.50;5071554;28;19928;-65
2021/01/05 08:50:00;;;;;;;;;;;;;;;20.23;29.24;100224.63;5071883;28;19924;-65
2021/01/05 08:52:26;;;;;;;;;;;;;;;20.22;28.91;100233.22;5054889;28;19924;-66
2021/01/05 08:54:52;;;;;;;;;;;;;;;20.18;29.07;100238.47;5052037;28;20013;-66
2021/01/05 08:57:18;;;;;;;;;;;;;;;20.14;29.16;100237.38;5071203;28;20325;-66
2021/01/05 08:59:45;;;;;;;;;;;;;;;20.11;29.27;100237.09;5054829;28;19924;-65
2021/01/05 09:02:11;;;;;;;;;;;;;;;20.13;29.04;100234.88;5053741;28;20451;-66
2021/01/05 09:04:37;;;;;;;;;;;;;;;20.12;29.07;100238.75;5072324;28;20015;-65
2021/01/05 09:07:04;;;;;;;;;;;;;;;20.13;29.28;100237.66;5072151;28;19928;-65
2021/01/05 09:09:30;;;;;;;;;;;;;;;20.18;29.05;100240.41;5054395;28;20015;-65
2021/01/05 09:11:57;;;;;;;;;;;;;;;20.19;28.84;100240.13;5072140;28;19929;-65
2021/01/05 09:14:23;;;;;;;;;;;;;;;20.17;28.90;100236.81;5070798;28;19931;-65
2021/01/05 09:16:59;;;;;;;;;;;;;;;20.20;29.02;100236.25;5070778;28;19925;-65
2021/01/05 09:19:26;;;;;;;;;;;;;;;20.24;28.91;100231.00;5070685;28;19956;-66
2021/01/05 09:21:52;;;;;;;;;;;;;;;20.25;29.04;100238.19;5054324;28;20170;-66
2021/01/05 09:24:19;;;;;;;;;;;;;;;20.33;29.19;100234.88;5070745;28;19924;-66
2021/01/05 09:26:49;;;;;;;;;;;;;;;20.38;29.04;100232.13;5071783;28;19967;-66
2021/01/05 09:29:15;;;;;;;;;;;;;;;20.41;28.79;100228.78;5070352;28;19928;-66
2021/01/05 09:31:42;;;;;;;;;;;;;;;20.48;28.81;100234.00;5054016;28;19947;-65
2021/01/05 09:34:09;;;;;;;;;;;;;;;20.52;28.88;100241.47;5070389;28;19933;-65
2021/01/05 09:36:35;;;;;;;;;;;;;;;20.50;28.99;100235.38;5054104;28;19924;-66
2021/01/05 09:39:05;;;;;;;;;;;;;;;20.52;28.93;100238.72;5070361;28;19957;-65
2021/01/05 09:41:33;;;;;;;;;;;;;;;20.46;28.76;100239.81;5070215;28;19924;-64
2021/01/05 09:43:59;;;;;;;;;;;;;;;20.46;29.02;100234.28;5070401;28;20019;-64
2021/01/05 09:46:25;;;;;;;;;;;;;;;20.43;28.87;100237.66;5033685;28;19939;-64
2021/01/05 09:48:51;;;;;;;;;;;;;;;20.47;28.94;100229.59;5064460;28;19944;-65
2021/01/05 09:51:19;;;;;;;;;;;;;;;20.40;28.83;100227.13;5071067;28;20023;-64
2021/01/05 09:53:45;;;;;;;;;;;;;;;20.35;28.87;100236.25;5053505;28;19960;-64
2021/01/05 09:56:11;;;;;;;;;;;;;;;20.35;28.81;100235.41;5071117;28;19967;-65
2021/01/05 09:58:37;;;;;;;;;;;;;;;20.33;29.04;100224.63;5069974;28;20305;-65
2021/01/05 10:01:04;;;;;;;;;;;;;;;20.37;28.75;100222.13;5070011;28;20352;-64
2021/01/05 10:03:30;;;;;;;;;;;;;;;20.35;28.90;100222.41;5071298;28;19932;-65
2021/01/05 10:05:56;;;;;;;;;;;;;;;20.37;28.80;100223.00;5069776;28;19931;-65
2021/01/05 10:08:22;;;;;;;;;;;;;;;20.37;28.82;100219.34;5071113;28;20194;-65
2021/01/05 10:10:49;;;;;;;;;;;;;;;20.36;28.92;100212.16;5053027;28;19925;-65
2021/01/05 10:13:15;;;;;;;;;;;;;;;20.36;28.93;100212.16;5070536;28;19924;-65
2021/01/05 10:15:41;;;;;;;;;;;;;;;20.40;28.92;100211.34;5071182;28;19925;-65
2021/01/05 10:18:08;;;;;;;;;;;;;;;20.39;28.65;100206.09;5069177;28;19938;-65
2021/01/05 10:20:34;;;;;;;;;;;;;;;20.41;28.99;100212.19;5071105;28;19939;-65
2021/01/05 10:23:00;;;;;;;;;;;;;;;20.43;28.63;100209.13;5070819;28;19931;-65
2021/01/05 10:25:26;;;;;;;;;;;;;;;20.48;28.95;100209.09;5069732;28;19925;-65
2021/01/05 10:27:52;;;;;;;;;;;;;;;20.49;28.64;100208.81;5053080;28;19924;-65
2021/01/05 10:30:19;;;;;;;;;;;;;;;20.49;28.68;100197.75;5050571;28;20390;-65
2021/01/05 10:32:45;;;;;;;;;;;;;;;20.47;28.65;100197.19;5070834;28;20398;-65
2021/01/05 10:35:16;;;;;;;;;;;;;;;20.48;28.75;100198.84;5070837;28;20022;-65
2021/01/05 10:37:45;;;;;;;;;;;;;;;20.49;28.82;100200.50;5069218;28;20309;-65
2021/01/05 10:40:12;;;;;;;;;;;;;;;20.52;28.77;100196.34;5071055;28;20015;-65
2021/01/05 10:42:39;;;;;;;;;;;;;;;20.50;28.70;100196.63;5070891;28;20023;-64
2021/01/05 10:45:06;;;;;;;;;;;;;;;20.46;28.96;100198.31;5069943;28;20320;-65
2021/01/05 10:47:32;;;;;;;;;;;;;;;20.44;28.89;100197.78;5071059;28;19924;-65
2021/01/05 10:49:59;;;;;;;;;;;;;;;20.38;29.14;100196.13;5069565;28;20406;-67
2021/01/05 10:52:25;;;;;;;;;;;;;;;20.34;29.23;100200.53;5070375;28;19924;-65
2021/01/05 10:54:51;;;;;;;;;;;;;;;20.37;29.17;100188.91;5069509;28;20015;-64
2021/01/05 10:57:19;;;;;;;;;;;;;;;20.49;28.82;100191.38;5069248;28;19928;-65
2021/01/05 10:59:45;;;;;;;;;;;;;;;20.70;28.56;100190.19;5068933;28;20022;-65
2021/01/05 11:02:11;;;;;;;;;;;;;;;20.90;28.43;100189.25;5070001;28;19924;-64
2021/01/05 11:04:39;;;;;;;;;;;;;;;21.14;28.04;100181.91;5070417;28;19932;-65
2021/01/05 11:07:06;;;;;;;;;;;;;;;21.27;27.67;100189.63;5069504;28;20031;-65
2021/01/05 11:09:32;;;;;;;;;;;;;;;21.33;27.79;100188.47;5049191;28;20314;-65
2021/01/05 11:12:05;;;;;;;;;;;;;;;21.46;27.37;100186.19;5069796;28;20042;-65
2021/01/05 11:14:31;;;;;;;;;;;;;;;21.53;27.61;100183.88;5050072;28;19924;-64
2021/01/05 11:16:58;;;;;;;;;;;;;;;21.57;27.64;100184.97;5069756;28;19963;-66
2021/01/05 11:19:24;;;;;;;;;;;;;;;21.61;28.00;100184.09;5070466;28;20058;-65
2021/01/05 11:21:57;;;;;;;;;;;;;;;21.65;27.69;100185.19;5053068;28;19931;-66
2021/01/05 11:24:27;;;;;;;;;;;;;;;21.65;27.36;100173.25;5069030;28;19924;-65
2021/01/05 11:26:54;;;;;;;;;;;;;;;21.67;27.48;100171.03;5072243;28;20019;-65
2021/01/05 11:29:20;;;;;;;;;;;;;;;21.69;27.22;100175.16;5073137;28;19968;-65
2021/01/05 11:32:04;;;;;;;;;;;;;;;21.70;27.68;100181.53;5073244;28;19960;-66
2021/01/05 11:34:30;;;;;;;;;;;;;;;21.70;27.39;100168.50;5074572;28;19924;-65
2021/01/05 11:37:00;;;;;;;;;;;;;;;21.71;27.18;100172.09;5053534;28;20039;-68
2021/01/05 11:39:27;;;;;;;;;;;;;;;21.68;27.46;100165.19;5072962;28;19924;-66
2021/01/05 11:41:55;;;;;;;;;;;;;;;21.69;27.49;100163.25;5074130;28;19941;-65
2021/01/05 11:44:21;;;;;;;;;;;;;;;21.69;27.39;100171.56;5072664;28;19924;-65
2021/01/05 11:46:48;;;;;;;;;;;;;;;21.65;27.35;100164.94;5074395;28;19935;-65
2021/01/05 11:49:14;;;;;;;;;;;;;;;21.64;27.65;100153.00;5073918;28;20313;-65
2021/01/05 11:51:40;;;;;;;;;;;;;;;21.59;27.27;100146.69;5074063;28;19940;-64
2021/01/05 11:54:06;;;;;;;;;;;;;;;21.51;27.14;100144.53;5074057;28;19952;-65
2021/01/05 11:56:33;;;;;;;;;;;;;;;21.49;27.63;100147.59;5072733;28;19924;-66
2021/01/05 11:58:59;;;;;;;;;;;;;;;21.51;27.59;100147.28;5072180;28;19924;-65
2021/01/05 12:01:26;;;;;;;;;;;;;;;21.47;27.65;100143.47;5072705;28;19932;-65
2021/01/05 12:03:52;;;;;;;;;;;;;;;21.53;27.45;100136.75;5072535;28;19932;-65
2021/01/05 12:06:20;;;;;;;;;;;;;;;21.53;27.59;100134.78;5072189;28;19925;-65
2021/01/05 12:08:47;;;;;;;;;;;;;;;21.50;27.40;100132.59;5052553;28;20383;-66
2021/01/05 12:11:20;;;;;;;;;;;;;;;21.52;27.20;100135.09;5070198;28;20076;-64
2021/01/05 12:13:46;;;;;;;;;;;;;;;21.52;27.50;100135.09;5073589;28;19925;-64
2021/01/05 12:16:12;;;;;;;;;;;;;;;21.46;27.58;100136.28;5072521;28;19938;-65
2021/01/05 12:18:39;;;;;;;;;;;;;;;21.53;27.40;100136.75;5064224;28;19932;-65
2021/01/05 12:21:05;;;;;;;;;;;;;;;21.45;27.20;100134.63;5055502;28;19924;-66
2021/01/05 12:23:31;;;;;;;;;;;;;;;;;;5073312;28;19967;-65
2021/01/05 12:25:57;;;;;;;;;;;;;;;21.50;27.53;100131.78;5072063;28;19925;-67
2021/01/05 12:28:23;;;;;;;;;;;;;;;21.52;27.38;100126.78;5055183;28;20367;-65
2021/01/05 12:30:50;;;;;;;;;;;;;;;21.51;27.42;100130.66;5073189;28;20023;-65
2021/01/05 12:33:16;;;;;;;;;;;;;;;21.57;27.16;100130.31;5071583;28;19984;-65
2021/01/05 12:35:42;;;;;;;;;;;;;;;21.56;27.06;100130.63;5072932;28;19924;-65
2021/01/05 12:38:09;;;;;;;;;;;;;;;21.58;27.43;100133.94;5054645;28;19925;-65
2021/01/05 12:40:35;;;;;;;;;;;;;;;21.58;27.22;100131.16;5071448;28;19974;-65
2021/01/05 12:43:01;;;;;;;;;;;;;;;21.54;27.22;100132.84;5071599;28;19924;-65
2021/01/05 12:45:27;;;;;;;;;;;;;;;21.45;27.25;100132.66;5072882;28;20298;-65
2021/01/05 12:47:54;;;;;;;;;;;;;;;21.50;27.27;100137.31;5071566;28;19926;-65
2021/01/05 12:50:20;;;;;;;;;;;;;;;21.48;27.33;100139.59;5072969;28;19932;-65
2021/01/05 12:52:48;;;;;;;;;;;;;;;21.42;27.25;100140.75;5072203;28;19925;-66
2021/01/05 12:55:15;;;;;;;;;;;;;;;21.43;27.36;100139.63;5073118;28;19924;-65